Time;durP1;ratioP1;P1;durP2;ratioP2;P2;SDS_P1;SDS_P2;PMS_P1;PMS_P2;Temp;Humidity;BMP_temperature;BMP_pressure;BME280_temperature;BME280_humidity;BME280_pressure;Samples;Min_cycle;Max_cycle;Signal;HPM_P1;HPM_P2
2022/11/09 00:01:59;;;;;;;49.70;27.00;;;;;;;3.17;79.19;98961.05;87069;1307;22916;-73
2022/11/09 00:04:03;;;;;;;50.70;26.70;;;;;;;3.12;78.91;98961.45;86868;1293;98439;-76
2022/11/09 00:06:04;;;;;;;46.80;25.10;;;;;;;3.13;78.92;98963.88;87041;1283;23383;-74
2022/11/09 00:08:08;;;;;;;46.00;25.70;;;;;;;3.09;79.03;98960.31;86830;1313;23925;-72
2022/11/09 00:10:10;;;;;;;51.40;27.00;;;;;;;3.05;78.99;98959.85;86996;1287;99488;-73
2022/11/09 00:12:11;;;;;;;39.00;24.10;;;;;;;3.03;78.91;98961.45;86799;1305;23034;-72
2022/11/09 00:14:15;;;;;;;46.10;25.30;;;;;;;3.02;79.10;98958.86;86913;1298;25568;-73
2022/11/09 00:16:20;;;;;;;48.60;25.80;;;;;;;2.99;78.99;98958.92;86948;1291;98317;-74
2022/11/09 00:18:23;;;;;;;50.00;27.00;;;;;;;2.97;79.20;98958.25;86794;1292;24242;-72
2022/11/09 00:20:25;;;;;;;64.70;25.20;;;;;;;2.97;79.07;98965.90;87163;1298;22477;-72
2022/11/09 00:22:27;;;;;;;42.30;24.50;;;;;;;2.97;78.80;98961.21;87015;1296;99123;-73
2022/11/09 00:24:29;;;;;;;48.90;26.20;;;;;;;2.95;78.82;98962.80;86912;1290;23612;-73
2022/11/09 00:26:31;;;;;;;42.10;24.30;;;;;;;2.91;79.08;98960.80;86748;1287;22477;-74
2022/11/09 00:28:34;;;;;;;49.90;25.00;;;;;;;2.88;78.93;98960.50;86778;1297;98919;-72
2022/11/09 00:30:36;;;;;;;51.60;26.60;;;;;;;2.87;78.96;98959.64;86845;1291;22475;-72
2022/11/09 00:32:38;;;;;;;42.30;25.90;;;;;;;2.88;79.13;98961.19;86879;1298;22483;-72
2022/11/09 00:34:40;;;;;;;45.90;25.70;;;;;;;2.89;79.32;98966.55;86780;1296;99395;-73
2022/11/09 00:36:41;;;;;;;50.30;27.00;;;;;;;2.86;79.01;98965.55;86968;1287;22726;-73
2022/11/09 00:38:50;;;;;;;49.50;27.20;;;;;;;2.83;79.15;98970.13;86697;1300;22481;-74
2022/11/09 00:40:53;;;;;;;48.50;26.70;;;;;;;2.81;78.89;98967.73;86696;1298;99709;-73
2022/11/09 00:42:54;;;;;;;47.90;26.20;;;;;;;2.80;79.00;98967.06;86812;1287;22500;-73
2022/11/09 00:44:56;;;;;;;47.90;27.90;;;;;;;2.76;78.92;98970.41;86810;1287;23583;-73
2022/11/09 00:46:58;;;;;;;48.00;28.30;;;;;;;2.74;79.09;98970.11;86764;1294;98348;-73
2022/11/09 00:49:00;;;;;;;47.20;28.70;;;;;;;2.72;79.00;98969.95;86776;1291;22455;-72
2022/11/09 00:51:03;;;;;;;49.70;27.30;;;;;;;2.71;79.27;98971.02;86714;1296;25340;-73
2022/11/09 00:53:06;;;;;;;52.50;27.90;;;;;;;2.70;79.25;98973.80;86462;1301;98460;-74
2022/11/09 00:55:08;;;;;;;53.30;29.30;;;;;;;2.67;79.13;98966.40;86868;1284;25292;-73
2022/11/09 00:57:12;;;;;;;57.40;28.20;;;;;;;2.67;78.95;98969.34;86740;1291;22668;-73
2022/11/09 00:59:14;;;;;;;59.10;28.90;;;;;;;2.64;79.41;98968.02;86794;1295;98459;-71
2022/11/09 01:01:19;;;;;;;50.70;28.10;;;;;;;2.63;79.32;98965.08;86639;1292;25264;-73
2022/11/09 01:03:21;;;;;;;53.80;27.90;;;;;;;2.62;79.05;98968.90;86587;1290;22496;-73
2022/11/09 01:05:23;;;;;;;48.20;27.80;;;;;;;2.59;79.15;98968.80;86533;1296;98338;-72
2022/11/09 01:07:25;;;;;;;52.60;28.70;;;;;;;2.56;79.00;98966.40;86704;1287;22491;-72
2022/11/09 01:09:26;;;;;;;41.50;26.80;;;;;;;2.54;79.15;98965.73;86544;1290;22445;-72
2022/11/09 01:11:28;;;;;;;54.50;28.70;;;;;;;2.53;79.12;98963.85;86669;1287;98354;-72
2022/11/09 01:13:30;;;;;;;54.70;31.00;;;;;;;2.50;79.24;98968.40;86750;1286;22974;-73
2022/11/09 01:15:32;;;;;;;55.40;30.80;;;;;;;2.46;79.12;98966.20;86535;1296;22563;-73
2022/11/09 01:17:34;;;;;;;59.40;31.50;;;;;;;2.45;79.13;98962.23;86603;1294;99667;-74
2022/11/09 01:19:36;;;;;;;60.90;30.20;;;;;;;2.44;79.11;98960.34;86600;1290;22726;-72
2022/11/09 01:21:37;;;;;;;57.70;32.20;;;;;;;2.40;78.85;98962.30;86575;1291;26498;-72
2022/11/09 01:23:41;;;;;;;63.10;34.50;;;;;;;2.38;79.05;98961.98;86417;1290;99908;-72
2022/11/09 01:25:44;;;;;;;66.90;34.00;;;;;;;2.38;79.10;98957.31;86811;1287;24314;-72
2022/11/09 01:27:45;;;;;;;63.70;34.70;;;;;;;2.37;79.13;98954.89;86485;1297;98388;-73
2022/11/09 01:29:47;;;;;;;60.40;33.70;;;;;;;2.33;79.31;98954.10;86709;1295;23218;-73
2022/11/09 01:31:49;;;;;;;68.50;36.60;;;;;;;2.28;79.25;98955.55;86510;1291;22560;-72
2022/11/09 01:33:51;;;;;;;65.50;35.70;;;;;;;2.27;79.33;98952.80;86629;1287;98482;-71
2022/11/09 01:35:52;;;;;;;59.30;35.40;;;;;;;2.27;79.09;98947.59;86495;1297;23326;-74
2022/11/09 01:37:54;;;;;;;67.00;37.40;;;;;;;2.25;79.27;98947.45;86682;1281;22491;-72
2022/11/09 01:39:56;;;;;;;69.00;40.00;;;;;;;2.20;79.15;98950.64;86570;1284;99756;-72
2022/11/09 01:41:58;;;;;;;75.20;41.20;;;;;;;2.18;79.11;98948.59;86605;1290;25367;-72
2022/11/09 01:44:02;;;;;;;72.20;39.90;;;;;;;2.19;79.36;98949.29;86726;1291;22632;-72
2022/11/09 01:46:23;;;;;;;69.60;38.50;;;;;;;2.17;79.33;98951.04;86608;1293;99946;-72
2022/11/09 01:48:39;;;;;;;69.70;38.90;;;;;;;2.17;79.36;98950.70;86609;1291;22549;-73
2022/11/09 01:50:51;;;;;;;60.60;36.20;;;;;;;2.18;79.51;98950.16;86614;1291;25723;-73
2022/11/09 01:52:53;;;;;;;61.30;34.80;;;;;;;2.19;79.54;98943.73;86652;1287;98234;-73
2022/11/09 01:55:08;;;;;;;55.10;29.80;;;;;;;2.19;79.40;98946.16;86596;1289;22832;-73
2022/11/09 01:57:14;;;;;;;45.50;28.70;;;;;;;2.20;79.58;98942.48;86605;1284;24407;-73
2022/11/09 01:59:21;;;;;;;53.10;30.00;;;;;;;2.24;79.48;98941.75;86872;1289;98212;-72
2022/11/09 02:01:23;;;;;;;56.50;29.90;;;;;;;2.23;79.72;98935.53;86871;1292;24207;-72
2022/11/09 02:03:36;;;;;;;51.20;27.20;;;;;;;2.25;79.53;98935.34;86743;1287;22487;-72
2022/11/09 02:05:40;;;;;;;47.60;26.80;;;;;;;2.25;79.61;98931.17;86678;1291;99648;-72
2022/11/09 02:07:43;;;;;;;47.40;25.80;;;;;;;2.26;79.91;98934.95;86688;1288;24929;-73
2022/11/09 02:09:53;;;;;;;48.80;26.60;;;;;;;2.22;79.55;98933.46;86469;1290;98490;-72
2022/11/09 02:11:55;;;;;;;51.80;25.20;;;;;;;2.15;79.53;98933.73;86494;1290;24261;-73
2022/11/09 02:14:00;;;;;;;45.60;25.20;;;;;;;2.12;79.31;98931.18;86511;1290;22489;-73
2022/11/09 02:16:02;;;;;;;43.90;25.10;;;;;;;2.10;79.42;98930.52;86659;1294;99454;-72
2022/11/09 02:18:04;;;;;;;43.50;24.50;;;;;;;1.99;79.72;98915.79;86511;1289;22477;-71
2022/11/09 02:20:10;;;;;;;47.40;25.50;;;;;;;2.08;79.68;98933.66;86501;1299;22498;-72
2022/11/09 02:22:15;;;;;;;53.00;26.10;;;;;;;2.09;79.80;98934.52;86477;1290;99437;-73
2022/11/09 02:24:19;;;;;;;49.60;25.90;;;;;;;2.08;79.90;98935.58;86497;1290;24750;-73
2022/11/09 02:26:27;;;;;;;55.40;26.60;;;;;;;2.01;79.46;98933.58;86707;1296;22675;-73
2022/11/09 02:28:30;;;;;;;57.60;26.40;;;;;;;2.00;79.76;98932.21;86617;1287;99506;-71
2022/11/09 02:30:33;;;;;;;55.90;25.40;;;;;;;1.98;79.45;98931.02;86780;1287;22471;-71
2022/11/09 02:32:36;;;;;;;47.50;25.40;;;;;;;2.01;79.86;98931.68;86911;1297;25733;-72
2022/11/09 02:34:37;;;;;;;52.40;25.50;;;;;;;2.05;79.96;98931.80;86689;1289;99704;-72
2022/11/09 02:36:39;;;;;;;75.60;26.80;;;;;;;2.04;79.62;98928.86;86659;1293;22501;-74
2022/11/09 02:38:41;;;;;;;51.10;23.00;;;;;;;2.04;79.71;98929.05;86672;1287;22507;-73
2022/11/09 02:40:48;;;;;;;36.90;22.00;;;;;;;2.05;79.86;98924.70;86723;1287;99092;-72
2022/11/09 02:42:51;;;;;;;39.50;21.60;;;;;;;2.05;79.63;98922.79;86836;1287;24256;-72
2022/11/09 02:44:58;;;;;;;46.60;22.80;;;;;;;2.04;79.84;98924.02;86900;1287;22496;-73
2022/11/09 02:47:00;;;;;;;38.80;22.90;;;;;;;2.01;79.60;98921.11;86770;1287;99231;-74
2022/11/09 02:49:03;;;;;;;38.80;21.80;;;;;;;2.00;79.90;98924.59;86538;1290;22842;-73
2022/11/09 02:51:05;;;;;;;49.40;23.40;;;;;;;2.00;80.03;98923.90;86742;1291;22688;-76
2022/11/09 02:53:06;;;;;;;33.30;20.70;;;;;;;1.98;80.06;98921.66;86499;1290;98224;-73
2022/11/09 02:55:09;;;;;;;41.90;21.60;;;;;;;1.98;79.78;98922.73;86514;1290;22656;-74
2022/11/09 02:57:11;;;;;;;41.40;22.20;;;;;;;1.97;79.63;98922.91;86688;1290;22478;-74
2022/11/09 02:59:12;;;;;;;39.60;21.10;;;;;;;1.97;79.73;98920.46;86580;1292;98254;-73
2022/11/09 03:01:14;;;;;;;47.30;22.30;;;;;;;1.86;79.96;98902.97;86906;1297;22487;-74
2022/11/09 03:03:16;;;;;;;35.50;20.50;;;;;;;1.96;79.77;98921.35;86594;1290;23711;-73
2022/11/09 03:05:18;;;;;;;46.50;21.50;;;;;;;1.92;79.58;98918.82;86738;1298;99119;-75
2022/11/09 03:07:20;;;;;;;36.50;20.40;;;;;;;1.89;79.82;98915.04;86675;1296;22442;-74
2022/11/09 03:09:21;;;;;;;36.00;19.90;;;;;;;1.86;79.73;98912.30;86732;1287;26460;-73
2022/11/09 03:11:23;;;;;;;36.00;21.10;;;;;;;1.80;79.57;98913.95;86694;1302;100438;-76
2022/11/09 03:13:25;;;;;;;34.70;19.60;;;;;;;1.75;79.63;98917.14;86588;1290;22319;-75
2022/11/09 03:15:28;;;;;;;44.30;22.60;;;;;;;1.75;79.77;98916.46;86804;1288;22518;-74
2022/11/09 03:17:31;;;;;;;36.00;23.10;;;;;;;1.77;80.22;98918.84;86668;1298;98337;-75
2022/11/09 03:19:33;;;;;;;34.50;19.70;;;;;;;1.76;79.91;98919.02;86838;1294;22479;-75
2022/11/09 03:21:36;;;;;;;39.70;21.00;;;;;;;1.71;79.89;98916.15;86856;1289;22533;-74
2022/11/09 03:23:38;;;;;;;42.00;22.30;;;;;;;1.70;79.66;98910.61;86646;1292;98035;-75
2022/11/09 03:25:40;;;;;;;36.00;22.20;;;;;;;1.74;80.00;98913.52;86779;1291;22523;-75
2022/11/09 03:27:41;;;;;;;41.00;22.60;;;;;;;1.76;80.07;98911.23;86637;1289;98436;-72
2022/11/09 03:29:44;;;;;;;40.60;22.70;;;;;;;1.77;80.13;98916.05;86679;1294;22467;-73
2022/11/09 03:31:45;;;;;;;32.70;21.50;;;;;;;1.64;79.91;98897.55;86674;1290;22509;-73
2022/11/09 03:33:47;;;;;;;45.70;22.80;;;;;;;1.75;79.78;98915.42;86476;1290;99108;-73
2022/11/09 03:35:50;;;;;;;41.20;22.60;;;;;;;1.74;80.17;98917.49;86761;1286;23405;-72
2022/11/09 03:37:52;;;;;;;41.30;21.00;;;;;;;1.73;79.90;98918.90;86647;1284;25379;-73
2022/11/09 03:39:54;;;;;;;41.40;20.70;;;;;;;1.70;79.73;98916.33;86621;1290;99795;-72
2022/11/09 03:41:56;;;;;;;39.80;19.90;;;;;;;1.67;79.86;98919.83;86747;1286;22500;-74
2022/11/09 03:43:57;;;;;;;45.90;23.70;;;;;;;1.65;79.82;98922.11;86733;1287;22525;-75
2022/11/09 03:45:59;;;;;;;44.50;21.60;;;;;;;1.64;80.05;98924.39;86455;1283;100122;-72
2022/11/09 03:48:02;;;;;;;36.80;21.60;;;;;;;1.61;79.90;98925.45;86514;1293;33411;-73
2022/11/09 03:50:04;;;;;;;40.50;21.30;;;;;;;1.55;79.94;98925.17;86581;1290;22441;-73
2022/11/09 03:52:08;;;;;;;37.60;21.70;;;;;;;1.51;79.96;98929.91;86353;1294;98921;-74
2022/11/09 03:54:09;;;;;;;37.10;21.10;;;;;;;1.49;79.90;98925.44;86673;1287;22524;-75
2022/11/09 03:56:11;;;;;;;39.60;21.30;;;;;;;1.48;79.78;98927.38;86630;1290;22593;-73
2022/11/09 03:58:13;;;;;;;39.10;20.70;;;;;;;1.44;80.00;98926.88;86469;1290;98406;-72
2022/11/09 04:00:18;;;;;;;36.30;20.70;;;;;;;1.43;79.89;98930.36;87082;1296;22479;-73
2022/11/09 04:02:20;;;;;;;39.00;20.60;;;;;;;1.39;79.86;98926.77;87228;1289;24474;-72
2022/11/09 04:04:22;;;;;;;44.10;21.90;;;;;;;1.38;79.88;98926.08;86655;1287;98814;-74
2022/11/09 04:06:23;;;;;;;37.50;21.70;;;;;;;1.40;79.96;98924.68;86800;1289;22511;-75
2022/11/09 04:08:25;;;;;;;32.80;20.20;;;;;;;1.41;80.17;98926.91;86596;1291;22475;-73
2022/11/09 04:10:27;;;;;;;43.50;22.10;;;;;;;1.44;80.37;98924.27;86505;1291;98349;-73
2022/11/09 04:12:29;;;;;;;55.70;21.00;;;;;;;1.42;80.46;98916.69;86465;1290;24292;-74
2022/11/09 04:14:31;;;;;;;45.60;22.40;;;;;;;1.44;80.18;98919.78;86524;1287;22472;-73
2022/11/09 04:16:32;;;;;;;41.70;21.10;;;;;;;1.44;79.91;98917.70;86197;1286;99593;-74
2022/11/09 04:18:34;;;;;;;45.50;23.80;;;;;;;1.46;80.22;98915.25;86435;1287;22583;-73
2022/11/09 04:20:36;;;;;;;50.30;25.60;;;;;;;1.48;80.28;98917.14;86452;1297;22792;-71
2022/11/09 04:22:38;;;;;;;50.90;25.00;;;;;;;1.49;80.40;98913.48;86402;1289;99509;-76
2022/11/09 04:24:40;;;;;;;46.60;25.70;;;;;;;1.50;80.52;98910.35;86329;1289;25546;-72
2022/11/09 04:26:42;;;;;;;42.20;24.60;;;;;;;1.51;80.52;98911.56;86525;1287;22519;-71
2022/11/09 04:28:44;;;;;;;40.60;24.40;;;;;;;1.52;80.46;98911.02;86378;1290;99479;-72
2022/11/09 04:30:45;;;;;;;45.30;25.10;;;;;;;1.51;80.59;98909.65;86421;1289;22788;-71
2022/11/09 04:32:48;;;;;;;39.10;23.30;;;;;;;1.50;80.35;98909.32;86316;1293;22515;-72
2022/11/09 04:34:49;;;;;;;39.80;23.50;;;;;;;1.48;80.25;98907.44;86089;1290;99012;-71
2022/11/09 04:36:51;;;;;;;41.00;23.00;;;;;;;1.47;80.09;98903.48;86223;1290;23675;-71
2022/11/09 04:38:53;;;;;;;37.90;23.20;;;;;;;1.47;80.30;98904.87;86243;1290;22508;-72
2022/11/09 04:40:59;;;;;;;44.20;23.80;;;;;;;1.47;80.24;98900.71;86188;1294;98455;-72
2022/11/09 04:43:04;;;;;;;51.50;25.40;;;;;;;1.49;80.24;98906.39;86241;1284;22614;-72
2022/11/09 04:45:06;;;;;;;49.10;23.80;;;;;;;1.48;80.41;98902.42;86313;1291;25380;-71
2022/11/09 04:47:08;;;;;;;46.80;23.30;;;;;;;1.49;80.55;98902.23;86242;1286;100091;-72
2022/11/09 04:49:10;;;;;;;43.90;23.30;;;;;;;1.46;80.29;98902.45;86259;1291;25134;-72
2022/11/09 04:51:12;;;;;;;55.20;25.40;;;;;;;1.45;80.65;98905.21;86230;1289;22656;-72
2022/11/09 04:53:14;;;;;;;43.30;23.50;;;;;;;1.45;80.53;98905.05;86219;1291;99388;-71
2022/11/09 04:55:17;;;;;;;47.90;24.00;;;;;;;1.42;80.32;98906.64;86252;1283;22674;-71
2022/11/09 04:57:18;;;;;;;64.40;24.70;;;;;;;1.41;80.29;98902.17;86261;1291;22498;-72
2022/11/09 04:59:20;;;;;;;45.20;23.60;;;;;;;1.42;80.23;98906.30;86066;1294;99443;-72
2022/11/09 05:01:22;;;;;;;53.60;24.70;;;;;;;1.40;80.38;98905.81;86073;1291;22552;-74
2022/11/09 05:03:24;;;;;;;45.00;23.40;;;;;;;1.42;80.54;98905.09;86303;1289;24467;-72
2022/11/09 05:05:26;;;;;;;46.90;24.30;;;;;;;1.42;80.43;98907.17;86070;1285;98391;-71
2022/11/09 05:07:28;;;;;;;49.20;24.80;;;;;;;1.36;80.05;98899.10;86187;1299;23575;-71
2022/11/09 05:09:30;;;;;;;52.80;26.60;;;;;;;1.33;80.42;98895.14;86057;1290;22482;-72
2022/11/09 05:11:33;;;;;;;57.90;26.30;;;;;;;1.35;80.29;98898.60;86139;1291;98326;-70
2022/11/09 05:13:35;;;;;;;55.00;26.60;;;;;;;1.35;80.63;98895.31;86313;1289;22493;-71
2022/11/09 05:15:37;;;;;;;47.00;26.90;;;;;;;1.35;80.74;98893.05;86366;1288;22477;-73
2022/11/09 05:17:41;;;;;;;48.30;25.60;;;;;;;1.37;80.75;98890.25;86221;1284;99190;-73
2022/11/09 05:19:42;;;;;;;76.80;26.80;;;;;;;1.36;80.64;98893.55;86451;1289;23530;-72
2022/11/09 05:21:44;;;;;;;48.50;24.90;;;;;;;1.32;80.60;98895.70;86248;1290;98444;-71
2022/11/09 05:23:59;;;;;;;44.90;26.70;;;;;;;1.29;80.47;98898.67;86218;1289;25862;-70
2022/11/09 05:26:00;;;;;;;52.20;24.40;;;;;;;1.25;80.31;98905.30;86443;1290;22585;-72
2022/11/09 05:28:03;;;;;;;52.80;25.30;;;;;;;1.23;80.39;98905.66;86178;1290;98401;-71
2022/11/09 05:30:05;;;;;;;56.30;25.20;;;;;;;1.21;80.48;98905.18;85853;1294;22546;-71
2022/11/09 05:32:07;;;;;;;53.40;24.00;;;;;;;1.20;80.34;98903.98;86061;1283;23593;-72
2022/11/09 05:34:12;;;;;;;55.30;26.90;;;;;;;1.19;80.44;98907.60;85836;1289;98405;-70
2022/11/09 05:36:14;;;;;;;51.80;25.00;;;;;;;1.19;80.38;98915.56;85952;1287;22539;-72
2022/11/09 05:38:15;;;;;;;53.60;27.30;;;;;;;1.15;80.38;98914.22;85851;1290;25413;-72
2022/11/09 05:40:18;;;;;;;61.60;26.80;;;;;;;1.12;80.41;98909.41;85858;1290;99855;-72
2022/11/09 05:42:23;;;;;;;54.30;26.80;;;;;;;1.12;80.43;98911.50;86057;1288;22728;-72
2022/11/09 05:44:25;;;;;;;67.30;25.90;;;;;;;1.13;80.60;98911.15;86328;1287;24389;-72
2022/11/09 05:46:27;;;;;;;47.60;24.50;;;;;;;1.15;80.78;98912.15;86083;1287;99377;-71
2022/11/09 05:48:29;;;;;;;68.40;28.80;;;;;;;1.17;80.74;98914.39;85944;1286;22598;-72
2022/11/09 05:50:31;;;;;;;103.20;29.20;;;;;;;1.19;80.89;98910.73;86083;1283;25374;-71
2022/11/09 05:52:33;;;;;;;77.30;30.30;;;;;;;1.22;80.56;98914.34;85797;1289;100358;-70
2022/11/09 05:54:34;;;;;;;70.20;28.60;;;;;;;1.24;80.91;98916.38;86013;1290;22660;-71
2022/11/09 05:56:36;;;;;;;75.40;29.50;;;;;;;1.25;80.81;98914.64;86062;1287;24250;-70
2022/11/09 05:58:38;;;;;;;67.30;27.00;;;;;;;1.28;80.93;98916.17;85325;1291;98986;-71
2022/11/09 06:00:40;;;;;;;64.20;27.80;;;;;;;1.29;80.89;98912.86;85847;1290;22527;-70
2022/11/09 06:02:42;;;;;;;85.50;28.80;;;;;;;1.30;80.96;98915.27;85909;1293;22497;-71
2022/11/09 06:04:43;;;;;;;77.10;27.50;;;;;;;1.30;80.67;98914.75;85735;1286;99563;-70
2022/11/09 06:06:45;;;;;;;67.30;27.80;;;;;;;1.29;80.93;98914.27;85960;1289;22579;-71
2022/11/09 06:08:46;;;;;;;112.10;29.90;;;;;;;1.30;81.05;98914.91;85935;1283;23155;-71
2022/11/09 06:10:48;;;;;;;124.40;31.30;;;;;;;1.32;80.73;98919.05;85154;1283;98862;-71
2022/11/09 06:12:50;;;;;;;69.20;29.70;;;;;;;1.33;81.16;98917.83;85189;1285;25260;-72
2022/11/09 06:14:51;;;;;;;82.10;31.90;;;;;;;1.37;81.10;98917.27;85362;1289;22523;-71
2022/11/09 06:16:53;;;;;;;98.80;41.10;;;;;;;1.39;80.98;98918.98;85557;1289;99830;-72
2022/11/09 06:18:55;;;;;;;99.40;43.30;;;;;;;1.44;81.15;98913.21;85330;1287;22489;-72
2022/11/09 06:21:01;;;;;;;128.00;48.00;;;;;;;1.48;81.20;98917.15;86100;1291;23709;-71
2022/11/09 06:23:02;;;;;;;97.90;44.10;;;;;;;1.53;81.27;98922.95;86189;1287;98803;-74
2022/11/09 06:25:04;;;;;;;116.20;45.00;;;;;;;1.58;81.41;98924.81;86070;1290;22548;-70
2022/11/09 06:27:06;;;;;;;122.30;42.80;;;;;;;1.62;81.03;98925.81;85566;1288;25567;-70
2022/11/09 06:29:08;;;;;;;116.20;45.30;;;;;;;1.66;81.53;98922.63;85356;1287;100520;-72
2022/11/09 06:31:14;;;;;;;113.00;40.90;;;;;;;1.71;81.39;98927.06;85413;1287;22628;-71
2022/11/09 06:33:15;;;;;;;115.00;43.90;;;;;;;1.75;81.40;98926.49;85384;1283;22783;-71
2022/11/09 06:35:17;;;;;;;122.70;43.80;;;;;;;1.79;81.31;98930.06;85132;1287;99721;-71
2022/11/09 06:37:19;;;;;;;103.30;43.70;;;;;;;1.84;81.37;98931.73;85435;1290;22503;-72
2022/11/09 06:39:21;;;;;;;106.50;42.60;;;;;;;1.89;81.40;98927.69;85564;1287;22558;-71
2022/11/09 06:41:22;;;;;;;120.40;46.30;;;;;;;1.94;81.41;98925.20;85769;1291;98584;-72
2022/11/09 06:43:25;;;;;;;107.80;46.00;;;;;;;1.99;81.62;98928.08;85790;1284;23722;-72
2022/11/09 06:45:28;;;;;;;103.50;44.60;;;;;;;2.05;81.47;98929.73;85994;1284;24431;-70
2022/11/09 06:47:30;;;;;;;93.40;45.40;;;;;;;2.12;81.49;98927.38;85519;1291;99719;-71
2022/11/09 06:49:31;;;;;;;93.00;46.40;;;;;;;2.18;81.46;98924.85;85132;1290;26507;-73
2022/11/09 06:51:33;;;;;;;120.20;47.30;;;;;;;2.24;81.57;98929.79;85946;1287;22514;-71
2022/11/09 06:53:36;;;;;;;91.60;46.20;;;;;;;2.32;81.46;98925.67;85769;1301;98387;-71
2022/11/09 06:55:39;;;;;;;111.50;46.50;;;;;;;2.40;81.62;98922.24;85859;1291;22491;-72
2022/11/09 06:57:41;;;;;;;107.70;43.70;;;;;;;2.47;81.64;98923.54;86313;1304;22464;-71
2022/11/09 06:59:43;;;;;;;99.00;43.20;;;;;;;2.53;81.64;98924.30;85997;1297;23254;-72
2022/11/09 07:01:45;;;;;;;90.40;43.30;;;;;;;2.60;81.80;98923.52;86058;1290;24259;-72
2022/11/09 07:03:46;;;;;;;98.10;43.20;;;;;;;2.66;81.61;98924.44;86075;1295;98795;-71
2022/11/09 07:05:50;;;;;;;101.60;43.50;;;;;;;2.72;81.97;98924.16;86000;1301;26798;-72
2022/11/09 07:07:51;;;;;;;102.20;44.50;;;;;;;2.77;81.66;98921.98;86257;1290;27590;-73
2022/11/09 07:09:54;;;;;;;85.70;41.90;;;;;;;2.81;81.64;98926.23;85999;1289;100217;-74
2022/11/09 07:11:56;;;;;;;89.30;42.30;;;;;;;2.84;81.79;98925.67;86315;1283;22558;-73
2022/11/09 07:13:57;;;;;;;95.70;40.90;;;;;;;2.89;81.75;98920.58;85934;1283;22536;-71
2022/11/09 07:15:59;;;;;;;83.40;39.70;;;;;;;2.96;81.87;98922.87;86052;1290;98858;-72
2022/11/09 07:18:03;;;;;;;83.30;38.60;;;;;;;3.02;81.90;98925.19;86082;1283;22500;-71
2022/11/09 07:20:07;;;;;;;78.50;37.70;;;;;;;3.08;81.81;98924.05;85824;1290;22460;-71
2022/11/09 07:22:09;;;;;;;95.20;39.70;;;;;;;3.14;81.70;98923.40;85950;1289;99528;-72
2022/11/09 07:24:11;;;;;;;94.00;40.00;;;;;;;3.21;81.92;98922.40;85931;1291;26675;-71
2022/11/09 07:26:13;;;;;;;95.40;39.70;;;;;;;3.29;81.80;98917.56;86008;1291;25394;-73
2022/11/09 07:28:15;;;;;;;78.00;40.10;;;;;;;3.37;81.86;98918.63;85990;1290;99460;-73
2022/11/09 07:30:17;;;;;;;79.10;40.80;;;;;;;3.44;81.97;98922.66;85843;1290;23105;-72
2022/11/09 07:32:19;;;;;;;88.50;40.00;;;;;;;3.52;81.91;98920.91;86166;1290;22511;-72
2022/11/09 07:34:20;;;;;;;83.80;39.20;;;;;;;3.61;81.95;98922.29;86039;1283;99370;-72
2022/11/09 07:36:22;;;;;;;85.90;39.80;;;;;;;3.69;81.90;98920.74;86314;1287;22472;-72
2022/11/09 07:38:24;;;;;;;97.60;40.40;;;;;;;3.78;82.03;98923.16;86195;1290;23087;-72
2022/11/09 07:40:25;;;;;;;75.30;38.20;;;;;;;3.85;81.97;98921.27;86102;1283;98198;-73
2022/11/09 07:42:27;;;;;;;87.40;36.60;;;;;;;3.93;81.97;98919.38;86273;1297;158662;-73
2022/11/09 07:44:29;;;;;;;88.50;39.00;;;;;;;4.02;81.84;98915.88;86611;1285;22571;-72
2022/11/09 07:46:31;;;;;;;72.40;36.40;;;;;;;4.10;82.04;98918.46;86450;1284;99128;-72
2022/11/09 07:48:32;;;;;;;72.10;36.40;;;;;;;4.19;82.04;98918.08;86213;1281;22627;-73
2022/11/09 07:50:36;;;;;;;83.30;38.60;;;;;;;4.30;82.00;98915.57;86300;1289;22461;-73
2022/11/09 07:52:37;;;;;;;68.40;35.70;;;;;;;4.40;82.08;98913.25;86234;1284;100006;-73
2022/11/09 07:54:39;;;;;;;77.50;37.40;;;;;;;4.51;82.29;98910.39;86493;1287;22802;-72
2022/11/09 07:56:41;;;;;;;77.00;34.40;;;;;;;4.61;82.26;98904.90;86495;1280;22554;-74
2022/11/09 07:58:43;;;;;;;73.50;36.40;;;;;;;4.73;82.37;98902.52;86149;1283;98524;-73
2022/11/09 08:00:44;;;;;;;67.00;35.40;;;;;;;4.85;82.31;98898.70;86354;1289;24282;-74
2022/11/09 08:02:49;;;;;;;73.80;37.00;;;;;;;5.01;82.44;98900.19;86244;1291;24647;-73
2022/11/09 08:04:50;;;;;;;69.00;34.90;;;;;;;5.17;82.56;98898.73;86416;1288;100134;-74
2022/11/09 08:06:53;;;;;;;68.10;34.70;;;;;;;5.31;82.50;98898.86;86505;1290;22610;-74
2022/11/09 08:08:54;;;;;;;68.20;35.70;;;;;;;5.44;82.52;98900.08;86566;1284;22849;-73
2022/11/09 08:10:57;;;;;;;71.10;35.00;;;;;;;5.56;82.56;98900.08;86422;1288;99500;-74
2022/11/09 08:13:02;;;;;;;65.20;33.80;;;;;;;5.68;82.39;98895.03;86467;1286;24389;-73
2022/11/09 08:15:05;;;;;;;68.10;35.00;;;;;;;5.78;82.33;98898.56;86906;1284;22554;-73
2022/11/09 08:17:07;;;;;;;79.40;33.30;;;;;;;5.88;82.22;98895.98;86275;1283;98404;-71
2022/11/09 08:19:09;;;;;;;69.80;35.00;;;;;;;6.02;82.15;98903.44;86395;1283;22656;-73
2022/11/09 08:21:11;;;;;;;62.20;34.00;;;;;;;6.15;82.31;98900.97;86395;1284;22635;-73
2022/11/09 08:23:17;;;;;;;66.40;35.50;;;;;;;6.25;82.15;98899.05;86489;1284;99024;-75
2022/11/09 08:25:18;;;;;;;75.70;43.00;;;;;;;6.41;82.26;98899.63;86345;1283;26559;-75
2022/11/09 08:27:21;;;;;;;88.40;46.50;;;;;;;6.55;82.03;98893.21;86389;1290;24252;-73
2022/11/09 08:29:23;;;;;;;85.70;45.00;;;;;;;6.67;82.09;98894.73;86588;1290;98398;-73
2022/11/09 08:31:25;;;;;;;86.00;45.40;;;;;;;6.78;82.02;98894.20;86805;1291;23322;-78
2022/11/09 08:33:29;;;;;;;82.60;46.50;;;;;;;6.88;81.92;98889.50;86489;1281;22689;-74
2022/11/09 08:35:30;;;;;;;90.30;48.70;;;;;;;6.96;81.73;98885.52;86216;1284;99484;-74
2022/11/09 08:37:36;;;;;;;89.70;45.00;;;;;;;7.08;82.13;98885.84;86247;1291;24262;-73
2022/11/09 08:39:38;;;;;;;90.40;42.90;;;;;;;7.20;81.97;98891.71;86564;1287;24665;-74
2022/11/09 08:41:39;;;;;;;83.80;42.30;;;;;;;7.29;81.81;98885.95;86448;1288;99518;-73
2022/11/09 08:43:41;;;;;;;77.10;42.10;;;;;;;7.38;81.78;98887.54;86341;1293;22619;-72
2022/11/09 08:45:43;;;;;;;76.80;41.50;;;;;;;7.55;82.19;98884.13;86377;1285;24676;-72
2022/11/09 08:47:46;;;;;;;81.30;45.60;;;;;;;7.67;81.61;98884.71;86477;1289;98193;-73
2022/11/09 08:49:47;;;;;;;85.10;41.40;;;;;;;7.79;82.11;98883.23;86413;1284;22538;-73
2022/11/09 08:51:50;;;;;;;80.20;42.60;;;;;;;7.93;81.90;98883.05;85643;1284;98390;-75
2022/11/09 08:53:52;;;;;;;81.00;41.30;;;;;;;8.02;81.87;98879.17;86488;1291;24260;-71
2022/11/09 08:55:53;;;;;;;68.60;39.70;;;;;;;8.11;81.53;98877.27;86124;1283;22822;-75
2022/11/09 08:57:57;;;;;;;64.10;36.60;;;;;;;8.25;82.00;98876.89;85570;1286;100009;-74
2022/11/09 08:59:59;;;;;;;84.60;39.90;;;;;;;8.37;81.49;98875.72;85787;1293;25225;-74
2022/11/09 09:02:01;;;;;;;73.40;37.40;;;;;;;8.47;81.40;98879.01;85915;1289;22674;-77
2022/11/09 09:04:03;;;;;;;74.20;38.30;;;;;;;8.56;81.25;98876.89;85824;1283;99601;-74
2022/11/09 09:06:07;;;;;;;70.40;38.00;;;;;;;8.62;81.12;98878.02;85879;1284;24177;-75
2022/11/09 09:08:11;;;;;;;63.10;38.20;;;;;;;8.67;81.19;98873.77;86200;1282;24288;-73
2022/11/09 09:10:13;;;;;;;81.10;38.40;;;;;;;8.75;81.19;98878.73;86124;1283;99919;-73
2022/11/09 09:12:15;;;;;;;70.30;34.50;;;;;;;8.85;81.11;98878.98;86197;1282;22444;-72
2022/11/09 09:14:16;;;;;;;62.60;36.40;;;;;;;8.95;81.01;98873.85;86092;1291;22518;-73
2022/11/09 09:16:18;;;;;;;60.40;32.20;;;;;;;9.00;81.22;98870.45;86160;1289;98695;-73
2022/11/09 09:18:20;;;;;;;67.70;32.90;;;;;;;9.01;80.76;98872.53;86163;1284;22507;-73
2022/11/09 09:20:21;;;;;;;65.00;33.00;;;;;;;9.03;80.78;98871.39;86389;1288;22842;-73
2022/11/09 09:22:24;;;;;;;79.80;34.90;;;;;;;9.12;81.02;98874.71;86205;1283;99405;-72
2022/11/09 09:24:25;;;;;;;77.40;37.60;;;;;;;9.22;80.79;98871.61;86466;1288;22621;-72
2022/11/09 09:26:28;;;;;;;70.90;33.20;;;;;;;9.35;80.79;98873.11;86306;1291;25381;-74
2022/11/09 09:28:30;;;;;;;79.00;32.70;;;;;;;9.49;80.81;98874.08;86305;1281;99029;-72
2022/11/09 09:30:32;;;;;;;63.50;33.40;;;;;;;9.60;80.54;98877.60;86375;1283;22733;-72